createdAt,value
2024-04-10T00:01:39.429Z,102063.66
2024-04-10T00:04:06.139Z,102059.41
2024-04-10T00:06:32.987Z,102061.00
2024-04-10T00:08:59.842Z,102060.97
2024-04-10T00:11:26.948Z,102066.00
2024-04-10T00:13:53.849Z,102066.00
2024-04-10T00:16:20.655Z,102059.44
2024-04-10T00:18:47.429Z,102063.31
2024-04-10T00:21:14.289Z,102061.75
2024-04-10T00:23:41.023Z,102051.31
2024-04-10T00:26:07.860Z,102058.28
2024-04-10T00:28:34.678Z,102044.34
2024-04-10T00:31:01.377Z,102049.78
2024-04-10T00:33:28.113Z,102035.75
2024-04-10T00:35:54.979Z,102038.09
2024-04-10T00:38:21.673Z,102034.97
2024-04-10T00:40:48.410Z,102031.09
2024-04-10T00:43:15.172Z,102029.09
2024-04-10T00:45:41.835Z,102024.50
2024-04-10T00:48:08.747Z,102016.31
2024-04-10T00:50:35.576Z,102022.53
2024-04-10T00:53:02.417Z,102033.84
2024-04-10T00:55:29.114Z,102029.59
2024-04-10T00:57:55.856Z,102023.41
2024-04-10T01:00:22.544Z,102021.06
2024-04-10T01:02:49.354Z,102012.53
2024-04-10T01:05:16.162Z,102016.41
2024-04-10T01:07:42.843Z,102002.00
2024-04-10T01:10:09.520Z,101994.66
2024-04-10T01:12:36.235Z,101995.03
2024-04-10T01:15:02.967Z,101984.16
2024-04-10T01:17:29.792Z,101972.09
2024-04-10T01:19:56.693Z,101970.19
2024-04-10T01:22:23.410Z,101973.28
2024-04-10T01:24:50.079Z,101973.72
2024-04-10T01:27:16.847Z,101990.44
2024-04-10T01:29:43.518Z,101998.16
2024-04-10T01:32:10.353Z,102000.09
2024-04-10T01:34:37.136Z,101985.38
2024-04-10T01:37:03.855Z,101978.34
2024-04-10T01:39:30.554Z,101981.50
2024-04-10T01:41:57.391Z,101983.03
2024-04-10T01:44:24.197Z,101985.00
2024-04-10T01:46:50.989Z,101993.22
2024-04-10T01:49:17.982Z,102004.81
2024-04-10T01:51:44.749Z,102008.34
2024-04-10T01:54:11.597Z,101990.44
2024-04-10T01:56:38.485Z,101984.66
2024-04-10T01:59:05.312Z,101988.50
2024-04-10T02:01:32.085Z,101986.59
2024-04-10T02:03:58.960Z,101991.66
2024-04-10T02:06:25.748Z,101989.72
2024-04-10T02:08:52.545Z,101992.03
2024-04-10T02:11:19.405Z,101983.50
2024-04-10T02:13:46.163Z,101966.03
2024-04-10T02:16:12.890Z,101969.13
2024-04-10T02:18:39.701Z,101974.56
2024-04-10T02:21:06.436Z,101978.84
2024-04-10T02:23:33.247Z,101987.38
2024-04-10T02:26:00.191Z,101976.13
2024-04-10T02:28:26.958Z,101973.00
2024-04-10T02:30:53.650Z,101975.72
2024-04-10T02:33:20.530Z,101994.00
2024-04-10T02:35:47.430Z,101986.63
2024-04-10T02:38:14.165Z,101984.69
2024-04-10T02:40:40.918Z,101990.09
2024-04-10T02:43:07.590Z,101989.00
2024-04-10T02:45:34.283Z,101984.72
2024-04-10T02:48:01.138Z,101987.44
2024-04-10T02:50:27.867Z,101993.66
2024-04-10T02:52:54.621Z,102003.75
2024-04-10T02:55:21.412Z,102000.28
2024-04-10T02:57:48.096Z,101998.31
2024-04-10T03:00:14.791Z,102000.66
2024-04-10T03:02:41.553Z,102000.69
2024-04-10T03:05:08.466Z,102003.00
2024-04-10T03:07:35.254Z,102001.47
2024-04-10T03:10:01.999Z,102011.53
2024-04-10T03:12:28.824Z,102006.53
2024-04-10T03:14:55.580Z,102003.03
2024-04-10T03:17:22.489Z,102001.06
2024-04-10T03:19:49.274Z,102004.22
2024-04-10T03:22:16.011Z,101994.91
2024-04-10T03:24:42.897Z,101995.66
2024-04-10T03:27:09.575Z,102000.31
2024-04-10T03:29:36.316Z,102001.50
2024-04-10T03:32:03.240Z,102004.59
2024-04-10T03:34:30.007Z,101999.56
2024-04-10T03:36:56.685Z,101998.78
2024-04-10T03:39:23.505Z,101988.31
2024-04-10T03:41:50.171Z,101989.50
2024-04-10T03:44:16.969Z,101982.84
2024-04-10T03:46:43.785Z,101984.00
2024-04-10T03:49:10.567Z,101980.94
2024-04-10T03:51:37.311Z,101984.00
2024-04-10T03:54:04.067Z,101991.03
2024-04-10T03:56:30.876Z,101990.25
2024-04-10T03:58:57.738Z,101982.09
2024-04-10T04:01:24.579Z,101984.78
2024-04-10T04:03:51.478Z,101978.19
2024-04-10T04:06:18.246Z,101982.06
2024-04-10T04:08:45.178Z,101980.56
2024-04-10T04:11:11.976Z,101984.81
2024-04-10T04:13:38.827Z,101982.53
2024-04-10T04:16:05.700Z,101987.56
2024-04-10T04:18:32.454Z,101991.03
2024-04-10T04:20:59.180Z,101987.16
2024-04-10T04:23:26.198Z,101986.75
2024-04-10T04:25:52.993Z,101987.19
2024-04-10T04:28:19.666Z,101976.69
2024-04-10T04:30:46.473Z,101981.38
2024-04-10T04:33:13.374Z,101979.03
2024-04-10T04:35:40.249Z,101986.03
2024-04-10T04:38:06.993Z,101985.63
2024-04-10T04:40:33.760Z,101987.22
2024-04-10T04:43:00.449Z,101981.41
2024-04-10T04:45:27.194Z,101975.25
2024-04-10T04:47:54.076Z,101976.00
2024-04-10T04:50:20.824Z,101976.00
2024-04-10T04:52:47.567Z,101971.75
2024-04-10T04:55:14.273Z,101975.63
2024-04-10T04:57:41.017Z,101982.69
2024-04-10T05:00:07.853Z,101996.22
2024-04-10T05:02:34.690Z,102002.03
2024-04-10T05:05:01.492Z,101992.75
2024-04-10T05:07:28.209Z,101990.41
2024-04-10T05:09:54.906Z,101995.47
2024-04-10T05:12:21.741Z,101995.88
2024-04-10T05:14:48.768Z,102009.06
2024-04-10T05:17:15.659Z,102001.69
2024-04-10T05:19:42.688Z,102006.38
2024-04-10T05:22:09.437Z,101999.78
2024-04-10T05:24:36.199Z,102008.31
2024-04-10T05:27:02.940Z,102006.72
2024-04-10T05:29:29.862Z,102007.94
2024-04-10T05:31:56.621Z,102012.97
2024-04-10T05:34:23.365Z,102008.72
2024-04-10T05:36:50.246Z,102000.59
2024-04-10T05:39:17.040Z,101997.44
2024-04-10T05:41:43.863Z,102000.56
2024-04-10T05:44:10.710Z,101984.28
2024-04-10T05:46:37.398Z,101989.69
2024-04-10T05:49:04.244Z,101986.19
2024-04-10T05:51:31.159Z,101984.63
2024-04-10T05:53:57.869Z,101996.28
2024-04-10T05:56:24.585Z,101999.34
2024-04-10T05:58:51.341Z,101997.44
2024-04-10T06:01:18.158Z,102000.16
2024-04-10T06:03:44.918Z,101998.63
2024-04-10T06:06:11.695Z,102001.75
2024-04-10T06:08:38.513Z,102002.88
2024-04-10T06:11:05.466Z,101993.56
2024-04-10T06:13:32.285Z,101992.03
2024-04-10T06:15:59.011Z,101992.41
2024-04-10T06:18:25.759Z,101993.56
2024-04-10T06:20:52.480Z,101988.16
2024-04-10T06:23:19.210Z,101980.38
2024-04-10T06:25:46.033Z,101985.78
2024-04-10T06:28:12.783Z,101978.00
2024-04-10T06:30:39.516Z,101980.28
2024-04-10T06:33:06.493Z,101988.41
2024-04-10T06:35:33.443Z,101983.75
2024-04-10T06:38:00.276Z,101988.81
2024-04-10T06:40:28.028Z,101991.84
2024-04-10T06:42:56.492Z,101992.22
2024-04-10T06:45:23.204Z,101979.41
2024-04-10T06:47:49.987Z,101977.91
2024-04-10T06:50:16.923Z,101970.09
2024-04-10T06:52:43.675Z,101975.53
2024-04-10T06:55:10.321Z,101972.78
2024-04-10T06:57:37.092Z,101986.28
2024-04-10T07:00:03.779Z,101984.72
2024-04-10T07:02:30.567Z,101985.47
2024-04-10T07:04:57.709Z,101983.91
2024-04-10T07:07:24.556Z,101987.03
2024-04-10T07:09:51.240Z,101982.38
2024-04-10T07:12:18.081Z,101980.78
2024-04-10T07:14:44.904Z,101976.13
2024-04-10T07:17:11.702Z,101977.25
2024-04-10T07:19:38.564Z,101968.31
2024-04-10T07:22:05.743Z,101975.69
2024-04-10T07:24:32.574Z,101970.25
2024-04-10T07:26:59.406Z,101972.91
2024-04-10T07:29:26.196Z,101953.88
2024-04-10T07:31:53.034Z,101967.44
2024-04-10T07:34:20.123Z,101967.78
2024-04-10T07:36:49.428Z,101969.31
2024-04-10T07:39:16.578Z,101979.03
2024-04-10T07:41:43.502Z,101980.44
2024-04-10T07:44:10.639Z,101990.44
2024-04-10T07:46:37.450Z,101986.84
2024-04-10T07:49:04.579Z,101982.91
2024-04-10T07:51:31.451Z,101979.34
2024-04-10T07:53:58.119Z,101986.34
2024-04-10T07:56:24.983Z,101987.41
2024-04-10T07:58:51.908Z,101992.41
2024-04-10T08:01:18.933Z,101991.56
2024-04-10T08:03:45.898Z,101988.13
2024-04-10T08:06:12.654Z,101995.38
2024-04-10T08:08:39.530Z,101999.63
2024-04-10T08:11:06.448Z,101999.53
2024-04-10T08:13:33.170Z,101992.09
2024-04-10T08:15:59.899Z,102001.84
2024-04-10T08:18:26.775Z,101996.03
2024-04-10T08:20:53.566Z,101994.34
2024-04-10T08:23:20.266Z,101988.84
2024-04-10T08:25:47.067Z,101977.16
2024-04-10T08:28:13.743Z,101981.78
2024-04-10T08:30:40.432Z,101993.00
2024-04-10T08:33:07.289Z,101991.72
2024-04-10T08:35:34.009Z,101983.94
2024-04-10T08:38:00.765Z,101989.78
2024-04-10T08:40:27.577Z,101980.81
2024-04-10T08:42:54.294Z,101978.47
2024-04-10T08:45:21.052Z,101984.28
2024-04-10T08:47:47.988Z,101984.56
2024-04-10T08:50:14.720Z,101981.00
2024-04-10T08:52:41.445Z,101979.72
2024-04-10T08:55:10.120Z,101982.50
2024-04-10T08:57:36.887Z,101993.72
2024-04-10T09:00:03.664Z,101994.75
2024-04-10T09:02:30.553Z,102008.34
2024-04-10T09:04:57.598Z,101999.72
2024-04-10T09:07:24.375Z,102000.50
2024-04-10T09:09:51.139Z,102000.38
2024-04-10T09:12:17.841Z,101994.53
2024-04-10T09:14:44.494Z,101997.22
2024-04-10T09:17:11.277Z,101990.16
2024-04-10T09:19:38.213Z,101985.47
2024-04-10T09:22:04.956Z,101988.47
2024-04-10T09:24:31.848Z,101984.06
2024-04-10T09:26:58.781Z,101987.91
2024-04-10T09:29:25.600Z,101991.69
2024-04-10T09:31:52.398Z,101984.69
2024-04-10T09:34:19.254Z,101988.56
2024-04-10T09:36:46.117Z,101991.63
2024-04-10T09:39:12.917Z,101990.03
2024-04-10T09:41:39.800Z,101996.91
2024-04-10T09:44:06.688Z,102001.94
2024-04-10T09:46:33.525Z,102006.56
2024-04-10T09:49:00.417Z,102009.56
2024-04-10T09:51:27.184Z,102002.41
2024-04-10T09:53:54.026Z,102003.91
2024-04-10T09:56:20.925Z,102012.94
2024-04-10T09:58:47.688Z,102002.78
2024-04-10T10:01:14.645Z,102012.88
2024-04-10T10:03:41.708Z,101992.94
2024-04-10T10:06:08.851Z,101986.84
2024-04-10T10:08:35.730Z,101995.81
2024-04-10T10:11:02.564Z,102003.09
2024-04-10T10:13:29.264Z,101998.28
2024-04-10T10:15:56.057Z,102003.22
2024-04-10T10:18:24.341Z,102015.97
2024-04-10T10:20:58.204Z,102009.19
2024-04-10T10:23:25.009Z,102009.56
2024-04-10T10:25:51.786Z,102012.16
2024-04-10T10:28:19.919Z,102018.75
2024-04-10T10:30:46.799Z,102017.75
2024-04-10T10:33:13.885Z,102018.78
2024-04-10T10:35:40.937Z,102023.31
2024-04-10T10:38:08.334Z,102024.78
2024-04-10T10:40:35.536Z,102024.66
2024-04-10T10:43:02.433Z,102032.69
2024-04-10T10:45:29.122Z,102028.56
2024-04-10T10:47:56.106Z,102022.88
2024-04-10T10:50:22.971Z,102017.69
2024-04-10T10:52:49.680Z,102018.63
2024-04-10T10:55:16.385Z,102014.78
2024-04-10T10:57:43.274Z,102017.53
2024-04-10T11:00:09.978Z,102014.16
2024-04-10T11:02:36.732Z,102012.53
2024-04-10T11:05:03.678Z,102012.16
2024-04-10T11:07:30.417Z,101998.19
2024-04-10T11:09:57.087Z,102000.91
2024-04-10T11:12:23.954Z,102001.06
2024-04-10T11:16:22.565Z,102000.81
2024-04-10T11:18:49.316Z,101995.69
2024-04-10T11:21:16.007Z,101998.34
2024-04-10T11:23:42.792Z,101990.22
2024-04-10T11:26:09.559Z,101988.28
2024-04-10T11:28:36.339Z,101989.06
2024-04-10T11:31:03.100Z,101983.19
2024-04-10T11:33:29.893Z,101976.88
2024-04-10T11:35:56.676Z,101977.03
2024-04-10T11:38:23.514Z,101980.53
2024-04-10T11:40:50.230Z,101990.88
2024-04-10T11:43:16.932Z,101985.06
2024-04-10T11:45:43.641Z,101985.59
2024-04-10T11:48:11.915Z,101976.25
2024-04-10T11:50:39.095Z,101979.41
2024-04-10T11:53:05.921Z,101985.78
2024-04-10T11:55:32.612Z,101983.19
2024-04-10T11:57:59.296Z,101987.59
2024-04-10T12:00:26.103Z,101982.63
2024-04-10T12:02:52.931Z,101981.09
2024-04-10T12:05:19.970Z,101978.81
2024-04-10T12:07:46.841Z,101972.28
2024-04-10T12:10:13.530Z,101970.34
2024-04-10T12:12:40.530Z,101970.13
2024-04-10T12:15:07.652Z,101965.38
2024-04-10T12:17:34.564Z,101968.88
2024-04-10T12:20:01.318Z,101971.41
2024-04-10T12:22:28.094Z,101971.72
2024-04-10T12:24:54.797Z,101975.91
2024-04-10T12:27:21.510Z,101970.97
2024-04-10T12:29:48.324Z,101968.56
2024-04-10T12:32:15.152Z,101974.19
2024-04-10T12:34:42.101Z,101971.22
2024-04-10T12:37:08.928Z,101969.00
2024-04-10T12:39:35.753Z,101969.53
2024-04-10T12:42:02.492Z,101971.28
2024-04-10T12:44:29.359Z,101969.00
2024-04-10T12:46:56.231Z,101962.44
2024-04-10T12:49:22.952Z,101946.25
2024-04-10T12:51:49.751Z,101947.38
2024-04-10T12:54:16.444Z,101940.66
2024-04-10T12:56:43.199Z,101950.06
2024-04-10T12:59:09.975Z,101953.75
2024-04-10T13:01:36.630Z,101942.13
2024-04-10T13:04:03.791Z,101956.38
2024-04-10T13:06:30.855Z,101951.56
2024-04-10T13:08:57.596Z,101953.38
2024-04-10T13:11:24.471Z,101949.75
2024-04-10T13:13:51.413Z,101941.38
2024-04-10T13:16:18.196Z,101944.75
2024-04-10T13:18:45.240Z,101937.06
2024-04-10T13:21:12.176Z,101933.56
2024-04-10T13:23:38.965Z,101933.22
2024-04-10T13:26:07.483Z,101935.97
2024-04-10T13:28:36.604Z,101920.50
2024-04-10T13:31:03.322Z,101930.78
2024-04-10T13:33:30.134Z,101931.63
2024-04-10T13:35:57.256Z,101936.88
2024-04-10T13:38:24.483Z,101934.75
2024-04-10T13:40:51.946Z,101928.59
2024-04-10T13:43:18.722Z,101932.88
2024-04-10T13:45:45.424Z,101933.72
2024-04-10T13:48:12.293Z,101936.31
2024-04-10T13:50:39.155Z,101928.09
2024-04-10T13:53:05.859Z,101918.34
2024-04-10T13:55:32.553Z,101926.28
2024-04-10T13:57:59.244Z,101924.38
2024-04-10T14:00:25.973Z,101924.47
2024-04-10T14:02:52.783Z,101924.66
2024-04-10T14:05:19.677Z,101916.34
2024-04-10T14:07:46.399Z,101919.44
2024-04-10T14:10:13.075Z,101925.88
2024-04-10T14:12:39.775Z,101915.44
2024-04-10T14:15:06.542Z,101917.47
2024-04-10T14:17:33.612Z,101913.56
2024-04-10T14:20:00.357Z,101910.91
2024-04-10T14:22:27.025Z,101907.06
2024-04-10T14:24:53.681Z,101907.41
2024-04-10T14:27:20.436Z,101915.25
2024-04-10T14:29:47.252Z,101903.97
2024-04-10T14:32:14.156Z,101907.22
2024-04-10T14:34:41.158Z,101913.81
2024-04-10T14:37:07.974Z,101905.94
2024-04-10T14:39:34.671Z,101904.13
2024-04-10T14:42:01.614Z,101906.78
2024-04-10T14:44:28.454Z,101905.34
2024-04-10T14:46:55.187Z,101912.00
2024-04-10T14:49:22.012Z,101911.66
2024-04-10T14:51:48.713Z,101903.28
2024-04-10T14:54:15.484Z,101904.38
2024-04-10T14:56:42.476Z,101906.38
2024-04-10T14:59:09.150Z,101904.06
2024-04-10T15:01:35.816Z,101907.19
2024-04-10T15:04:02.758Z,101902.94
2024-04-10T15:06:29.676Z,101893.53
2024-04-10T15:08:56.526Z,101885.00
2024-04-10T15:11:23.484Z,101883.97
2024-04-10T15:13:50.306Z,101881.66
2024-04-10T15:16:17.059Z,101874.56
2024-04-10T15:18:43.842Z,101874.25
2024-04-10T15:21:10.600Z,101871.19
2024-04-10T15:23:37.582Z,101871.84
2024-04-10T15:26:04.335Z,101869.09
2024-04-10T15:28:31.048Z,101865.19
2024-04-10T15:30:58.679Z,101866.81
2024-04-10T15:33:26.413Z,101868.00
2024-04-10T15:35:53.365Z,101866.81
2024-04-10T15:38:20.104Z,101866.44
2024-04-10T15:40:46.920Z,101868.78
2024-04-10T15:43:13.602Z,101871.19
2024-04-10T15:45:40.266Z,101866.81
2024-04-10T15:48:07.152Z,101869.63
2024-04-10T15:50:34.011Z,101851.75
2024-04-10T15:53:00.692Z,101854.16
2024-04-10T15:55:27.802Z,101855.97
2024-04-10T15:57:54.494Z,101852.63
2024-04-10T16:00:21.254Z,101855.41
2024-04-10T16:02:48.124Z,101859.00
2024-04-10T16:05:15.015Z,101845.13
2024-04-10T16:07:41.753Z,101853.56
2024-04-10T16:10:08.566Z,101849.88
2024-04-10T16:12:35.394Z,101854.56
2024-04-10T16:15:02.566Z,101857.59
2024-04-10T16:17:29.474Z,101851.84
2024-04-10T16:19:56.169Z,101849.13
2024-04-10T16:22:22.868Z,101851.84
2024-04-10T16:24:49.561Z,101852.63
2024-04-10T16:27:16.366Z,101853.38
2024-04-10T16:29:43.256Z,101850.66
2024-04-10T16:32:10.083Z,101845.19
2024-04-10T16:34:36.852Z,101852.22
2024-04-10T16:37:03.675Z,101841.59
2024-04-10T16:39:30.446Z,101838.09
2024-04-10T16:41:57.198Z,101838.03
2024-04-10T16:44:24.007Z,101839.72
2024-04-10T16:46:50.821Z,101839.28
2024-04-10T16:49:17.603Z,101847.56
2024-04-10T16:51:44.266Z,101842.47
2024-04-10T16:54:11.028Z,101839.00
2024-04-10T16:56:37.854Z,101835.91
2024-04-10T16:59:04.626Z,101840.84
2024-04-10T17:01:31.500Z,101849.16
2024-04-10T17:03:58.383Z,101840.06
2024-04-10T17:06:25.159Z,101842.03
2024-04-10T17:08:52.040Z,101843.66
2024-04-10T17:11:19.008Z,101834.69
2024-04-10T17:13:45.800Z,101835.44
2024-04-10T17:16:12.700Z,101835.44
2024-04-10T17:18:39.553Z,101836.63
2024-04-10T17:21:06.340Z,101839.38
2024-04-10T17:23:33.203Z,101841.69
2024-04-10T17:25:59.972Z,101842.09
2024-04-10T17:28:26.654Z,101843.66
2024-04-10T17:30:53.390Z,101845.25
2024-04-10T17:33:20.301Z,101843.66
2024-04-10T17:35:47.159Z,101843.22
2024-04-10T17:38:14.057Z,101839.78
2024-04-10T17:40:40.843Z,101848.34
2024-04-10T17:43:07.589Z,101846.03
2024-04-10T17:45:34.355Z,101851.06
2024-04-10T17:48:01.320Z,101854.56
2024-04-10T17:50:28.081Z,101857.38
2024-04-10T17:52:54.937Z,101857.03
2024-04-10T17:55:21.631Z,101856.19
2024-04-10T17:57:48.416Z,101852.28
2024-04-10T18:00:15.278Z,101851.91
2024-04-10T18:02:42.215Z,101856.19
2024-04-10T18:05:09.041Z,101858.53
2024-04-10T18:07:35.816Z,101860.63
2024-04-10T18:10:02.517Z,101855.56
2024-04-10T18:12:29.369Z,101851.72
2024-04-10T18:14:56.277Z,101859.47
2024-04-10T18:17:23.260Z,101860.09
2024-04-10T18:19:50.232Z,101850.88
2024-04-10T18:22:17.088Z,101850.44
2024-04-10T18:24:43.787Z,101851.72
2024-04-10T18:27:10.491Z,101850.88
2024-04-10T18:29:37.432Z,101846.34
2024-04-10T18:32:04.244Z,101847.88
2024-04-10T18:34:31.046Z,101841.56
2024-04-10T18:36:57.870Z,101837.03
2024-04-10T18:39:24.527Z,101840.09
2024-04-10T18:41:51.245Z,101833.00
2024-04-10T18:44:18.070Z,101836.84
2024-04-10T18:46:44.743Z,101835.81
2024-04-10T18:49:11.695Z,101834.72
2024-04-10T18:51:38.591Z,101831.13
2024-04-10T18:54:05.402Z,101833.09
2024-04-10T18:56:32.185Z,101828.41
2024-04-10T18:58:58.978Z,101834.38
2024-04-10T19:01:26.127Z,101827.31
2024-04-10T19:03:53.136Z,101832.47
2024-04-10T19:06:20.056Z,101832.06
2024-04-10T19:08:46.837Z,101831.66
2024-04-10T19:11:14.029Z,101834.72
2024-04-10T19:13:41.071Z,101834.72
2024-04-10T19:16:07.842Z,101820.28
2024-04-10T19:18:35.019Z,101817.84
2024-04-10T19:21:02.327Z,101819.03
2024-04-10T19:23:29.176Z,101823.72
2024-04-10T19:25:55.881Z,101833.88
2024-04-10T19:28:22.662Z,101823.97
2024-04-10T19:30:49.358Z,101832.00
2024-04-10T19:33:16.160Z,101831.66
2024-04-10T19:35:42.963Z,101837.19
2024-04-10T19:38:09.671Z,101840.66
2024-04-10T19:40:36.415Z,101838.78
2024-04-10T19:43:03.106Z,101837.28
2024-04-10T19:45:29.829Z,101839.56
2024-04-10T19:47:56.629Z,101838.47
2024-04-10T19:50:23.542Z,101839.50
2024-04-10T19:52:50.245Z,101834.47
2024-04-10T19:55:17.016Z,101847.50
2024-04-10T19:57:43.795Z,101849.88
2024-04-10T20:00:10.606Z,101861.22
2024-04-10T20:02:37.524Z,101860.47
2024-04-10T20:05:04.472Z,101867.41
2024-04-10T20:07:33.615Z,101863.59
2024-04-10T20:10:01.179Z,101866.69
2024-04-10T20:12:28.027Z,101876.19
2024-04-10T20:14:54.934Z,101872.22
2024-04-10T20:17:21.770Z,101876.16
2024-04-10T20:19:48.667Z,101871.03
2024-04-10T20:22:15.398Z,101871.38
2024-04-10T20:24:42.142Z,101871.88
2024-04-10T20:27:09.016Z,101876.03
2024-04-10T20:29:35.873Z,101877.97
2024-04-10T20:32:02.791Z,101875.97
2024-04-10T20:34:29.715Z,101872.53
2024-04-10T20:36:56.424Z,101880.19
2024-04-10T20:41:50.013Z,101892.75
2024-04-10T20:44:16.740Z,101895.59
2024-04-10T20:46:43.446Z,101894.50
2024-04-10T20:49:10.516Z,101900.59
2024-04-10T20:51:37.371Z,101890.16
2024-04-10T20:54:04.229Z,101899.69
2024-04-10T20:56:31.101Z,101900.16
2024-04-10T20:58:57.949Z,101902.31
2024-04-10T21:01:24.729Z,101905.84
2024-04-10T21:03:51.776Z,101899.91
2024-04-10T21:06:18.644Z,101897.38
2024-04-10T21:08:45.383Z,101910.81
2024-04-10T21:11:12.254Z,101906.31
2024-04-10T21:13:38.963Z,101898.34
2024-04-10T21:16:05.648Z,101908.16
2024-04-10T21:18:32.615Z,101906.00
2024-04-10T21:20:59.433Z,101907.31
2024-04-10T21:23:26.288Z,101903.88
2024-04-10T21:25:53.169Z,101902.56
2024-04-10T21:28:20.021Z,101910.03
2024-04-10T21:30:46.694Z,101909.28
2024-04-10T21:33:13.620Z,101905.91
2024-04-10T21:35:40.454Z,101907.44
2024-04-10T21:38:07.132Z,101910.09
2024-04-10T21:40:33.875Z,101903.59
2024-04-10T21:43:00.545Z,101892.09
2024-04-10T21:45:27.209Z,101894.28
2024-04-10T21:47:54.099Z,101888.88
2024-04-10T21:50:20.917Z,101889.75
2024-04-10T21:52:47.644Z,101886.19
2024-04-10T21:55:14.357Z,101886.44
2024-04-10T21:57:41.029Z,101885.59
2024-04-10T22:00:26.833Z,101875.59
2024-04-10T22:02:54.773Z,101879.69
2024-04-10T22:05:21.960Z,101881.34
2024-04-10T22:07:49.368Z,101882.53
2024-04-10T22:10:16.618Z,101882.94
2024-04-10T22:12:43.552Z,101882.75
2024-04-10T22:15:10.441Z,101881.34
2024-04-10T22:17:37.405Z,101885.59
2024-04-10T22:20:04.182Z,101888.41
2024-04-10T22:22:30.874Z,101886.78
2024-04-10T22:24:57.656Z,101877.97
2024-04-10T22:27:24.307Z,101881.13
2024-04-10T22:29:51.062Z,101878.75
2024-04-10T22:32:17.846Z,101873.84
2024-04-10T22:34:44.663Z,101876.81
2024-04-10T22:37:11.406Z,101872.44
2024-04-10T22:39:38.131Z,101866.84
2024-04-10T22:42:04.892Z,101863.78
2024-04-10T22:44:31.622Z,101868.19
2024-04-10T22:46:58.371Z,101857.63
2024-04-10T22:49:25.062Z,101864.28
2024-04-10T22:51:51.721Z,101854.94
2024-04-10T22:54:18.521Z,101854.88
2024-04-10T22:56:45.245Z,101854.72
2024-04-10T22:59:11.990Z,101852.91
2024-04-10T23:01:38.686Z,101848.00
2024-04-10T23:04:05.558Z,101855.63
2024-04-10T23:07:19.271Z,101851.84
2024-04-10T23:09:19.121Z,101851.84
2024-04-10T23:11:45.954Z,101842.75
2024-04-10T23:14:12.708Z,101840.00
2024-04-10T23:16:39.525Z,101845.19
2024-04-10T23:19:16.682Z,101842.47
2024-04-10T23:21:44.800Z,101843.03
2024-04-10T23:24:11.474Z,101841.91
2024-04-10T23:26:38.318Z,101838.38
2024-04-10T23:29:05.099Z,101843.03
2024-04-10T23:31:31.813Z,101834.91
2024-04-10T23:33:59.123Z,101844.69
2024-04-10T23:36:26.364Z,101838.38
2024-04-10T23:38:53.116Z,101845.06
2024-04-10T23:41:19.920Z,101839.59
2024-04-10T23:43:46.831Z,101848.13
2024-04-10T23:46:13.631Z,101834.22
2024-04-10T23:48:40.613Z,101835.31
2024-04-10T23:51:07.654Z,101829.09
2024-04-10T23:53:34.469Z,101839.22
2024-04-10T23:56:01.187Z,101834.16
2024-04-10T23:58:27.889Z,101835.72
